Time;durP1;ratioP1;P1;durP2;ratioP2;P2;SDS_P1;SDS_P2;PMS_P1;PMS_P2;Temp;Humidity;BMP_temperature;BMP_pressure;BME280_temperature;BME280_humidity;BME280_pressure;Samples;Min_cycle;Max_cycle;Signal;HPM_P1;HPM_P2
2023/12/04 00:01:15;;;;;;;23.17;12.50;;;;;;;-0.70;100.00;101257.53;5031655;28;20025;-69
2023/12/04 00:03:41;;;;;;;24.58;10.88;;;;;;;-0.71;100.00;101245.41;5031388;28;20037;-69
2023/12/04 00:06:06;;;;;;;24.55;10.75;;;;;;;-0.81;100.00;101223.47;5029976;28;20503;-69
2023/12/04 00:08:32;;;;;;;29.58;13.38;;;;;;;-0.75;100.00;101230.03;5031388;28;20408;-69
2023/12/04 00:10:58;;;;;;;29.85;11.48;;;;;;;-0.71;100.00;101236.69;5030100;28;20480;-69
2023/12/04 00:13:23;;;;;;;24.33;11.25;;;;;;;-0.72;100.00;101230.63;5030055;28;20049;-69
2023/12/04 00:15:48;;;;;;;25.48;13.48;;;;;;;-0.69;100.00;101230.38;5031305;28;20104;-69
2023/12/04 00:18:14;;;;;;;25.38;11.45;;;;;;;-0.69;100.00;101240.03;5029927;28;20175;-69
2023/12/04 00:20:39;;;;;;;29.70;14.18;;;;;;;-0.68;100.00;101244.34;5030055;28;20040;-69
2023/12/04 00:23:05;;;;;;;26.15;12.10;;;;;;;-0.68;100.00;101234.69;5031113;28;20097;-69
2023/12/04 00:25:30;;;;;;;30.75;12.65;;;;;;;-0.76;100.00;101226.56;5029676;28;20045;-70
2023/12/04 00:27:55;;;;;;;28.58;10.68;;;;;;;-0.64;100.00;101229.22;5030880;28;20116;-70
2023/12/04 00:30:21;;;;;;;27.35;11.27;;;;;;;-0.74;100.00;101210.72;5030960;28;20149;-70
2023/12/04 00:32:46;;;;;;;24.27;11.65;;;;;;;-0.62;100.00;101224.72;5030960;28;20064;-70
2023/12/04 00:35:11;;;;;;;23.50;10.32;;;;;;;-0.63;100.00;101217.78;5031009;28;20377;-69
2023/12/04 00:37:38;;;;;;;25.58;11.00;;;;;;;-0.60;100.00;101226.25;5030882;28;20064;-69
2023/12/04 00:40:05;;;;;;;23.00;11.90;;;;;;;-0.59;100.00;101222.69;5030446;28;20527;-69
2023/12/04 00:42:31;;;;;;;26.23;12.20;;;;;;;-0.59;100.00;101214.81;5030788;28;20061;-69
2023/12/04 00:44:56;;;;;;;26.48;11.40;;;;;;;-0.61;100.00;101205.41;5030616;28;20064;-69
2023/12/04 00:47:21;;;;;;;24.25;11.07;;;;;;;-0.61;100.00;101202.78;5029669;28;20496;-69
2023/12/04 00:49:47;;;;;;;27.00;12.13;;;;;;;-0.59;100.00;101196.47;5030646;28;20030;-69
2023/12/04 00:52:12;;;;;;;25.20;10.68;;;;;;;-0.56;100.00;101205.91;5029376;28;20124;-69
2023/12/04 00:54:41;;;;;;;24.50;10.63;;;;;;;-0.59;100.00;101196.47;5029272;28;20117;-69
2023/12/04 00:57:06;;;;;;;25.75;11.07;;;;;;;-0.63;100.00;101183.72;5029152;28;20041;-69
2023/12/04 00:59:32;;;;;;;23.48;11.15;;;;;;;-0.55;100.00;101197.06;5029961;28;20032;-69
2023/12/04 01:01:57;;;;;;;23.20;11.93;;;;;;;-0.53;100.00;101197.81;5029117;28;20048;-69
2023/12/04 01:04:23;;;;;;;25.83;11.18;;;;;;;-0.58;100.00;101184.22;5030298;28;20989;-69
2023/12/04 01:06:48;;;;;;;26.88;12.70;;;;;;;-0.54;100.00;101189.13;5030311;28;20037;-69
2023/12/04 01:09:13;;;;;;;26.67;12.70;;;;;;;-0.54;100.00;101175.19;5030371;28;20021;-69
2023/12/04 01:11:39;;;;;;;24.88;10.73;;;;;;;-0.55;100.00;101187.47;5028851;28;20061;-69
2023/12/04 01:14:04;;;;;;;21.85;9.38;;;;;;;-0.58;100.00;101178.97;5030250;28;20087;-70
2023/12/04 01:16:29;;;;;;;27.38;10.43;;;;;;;-0.57;100.00;101181.50;5030112;28;20030;-70
2023/12/04 01:18:55;;;;;;;22.15;10.35;;;;;;;-0.59;100.00;101172.09;5028843;28;20036;-70
2023/12/04 01:21:20;;;;;;;24.45;10.48;;;;;;;-0.56;100.00;101174.47;5028760;28;20029;-70
2023/12/04 01:23:45;;;;;;;25.48;11.13;;;;;;;-0.57;100.00;101181.50;5028814;28;20072;-70
2023/12/04 01:26:11;;;;;;;23.35;11.93;;;;;;;-0.57;100.00;101175.44;5029264;28;20029;-69
2023/12/04 01:28:37;;;;;;;25.73;11.85;;;;;;;-0.56;100.00;101164.00;5029861;28;20025;-69
2023/12/04 01:31:02;;;;;;;24.63;10.75;;;;;;;-0.56;100.00;101164.81;5028480;28;20045;-69
2023/12/04 01:33:28;;;;;;;28.83;11.98;;;;;;;-0.55;100.00;101166.50;5029819;28;20039;-69
2023/12/04 01:35:53;;;;;;;22.08;10.75;;;;;;;-0.55;100.00;101158.66;5029871;28;20025;-69
2023/12/04 01:38:18;;;;;;;24.52;12.15;;;;;;;-0.56;100.00;101159.56;5029730;28;20025;-69
2023/12/04 01:40:44;;;;;;;27.17;10.98;;;;;;;-0.55;100.00;101160.41;5028381;28;20453;-69
2023/12/04 01:43:09;;;;;;;24.60;10.55;;;;;;;-0.55;100.00;101150.78;5029629;28;20546;-69
2023/12/04 01:45:34;;;;;;;24.00;10.38;;;;;;;-0.57;100.00;101147.44;5028092;28;20095;-69
2023/12/04 01:48:00;;;;;;;26.00;11.10;;;;;;;-0.52;100.00;101152.34;5029703;28;20118;-69
2023/12/04 01:50:26;;;;;;;25.73;13.65;;;;;;;-0.52;100.00;101155.78;5029459;28;20393;-70
2023/12/04 01:52:52;;;;;;;24.13;12.30;;;;;;;-0.68;100.00;101127.31;5029541;28;20033;-70
2023/12/04 01:55:19;;;;;;;22.55;9.20;;;;;;;-0.51;100.00;101154.81;5029428;28;20040;-69
2023/12/04 01:57:45;;;;;;;26.70;12.30;;;;;;;-0.50;100.00;101143.41;5029610;28;20067;-70
2023/12/04 02:00:12;;;;;;;24.13;10.98;;;;;;;-0.53;100.00;101129.69;5028069;28;20385;-70
2023/12/04 02:02:38;;;;;;;23.95;11.30;;;;;;;-0.49;100.00;101147.69;5029430;28;20493;-69
2023/12/04 02:05:06;;;;;;;24.92;11.63;;;;;;;-0.50;100.00;101140.78;5029256;28;20092;-69
2023/12/04 02:07:32;;;;;;;23.83;9.82;;;;;;;-0.54;100.00;101123.63;5011558;28;20033;-70
2023/12/04 02:09:57;;;;;;;24.50;11.25;;;;;;;-0.45;100.00;101133.41;5029115;28;20029;-70
2023/12/04 02:12:23;;;;;;;25.80;11.73;;;;;;;-0.48;100.00;101119.69;5027237;28;20048;-70
2023/12/04 02:14:48;;;;;;;23.30;11.40;;;;;;;-0.49;100.00;101115.41;5027945;28;20029;-70
2023/12/04 02:17:15;;;;;;;23.13;10.88;;;;;;;-0.42;100.00;101123.63;5029252;28;20033;-69
2023/12/04 02:19:41;;;;;;;21.92;10.90;;;;;;;-0.41;100.00;101115.66;5028008;28;20115;-69
2023/12/04 02:22:06;;;;;;;22.30;10.52;;;;;;;-0.49;100.00;101103.16;5029081;28;20057;-69
2023/12/04 02:24:34;;;;;;;21.95;9.80;;;;;;;-0.43;100.00;101108.88;5027754;28;20519;-69
2023/12/04 02:27:10;;;;;;;20.92;9.32;;;;;;;-0.42;100.00;101106.09;5027892;28;20128;-69
2023/12/04 02:29:45;;;;;;;18.08;8.98;;;;;;;-0.42;100.00;101100.88;5029140;28;20090;-69
2023/12/04 02:32:17;;;;;;;22.52;9.57;;;;;;;-0.46;100.00;101095.03;5029129;28;20028;-69
2023/12/04 02:34:43;;;;;;;;;;;;;;;-0.41;100.00;101099.09;5029613;28;20068;-69
2023/12/04 02:37:10;;;;;;;19.83;8.85;;;;;;;-0.40;100.00;101090.28;5027856;28;19966;-70
2023/12/04 02:39:36;;;;;;;22.60;11.38;;;;;;;-0.41;100.00;101083.38;5028943;28;20057;-70
2023/12/04 02:42:02;;;;;;;19.38;8.65;;;;;;;-0.41;100.00;101083.38;5027642;28;20100;-70
2023/12/04 02:44:27;;;;;;;23.13;8.90;;;;;;;-0.44;100.00;101076.59;5027552;28;20588;-69
2023/12/04 02:46:52;;;;;;;23.42;9.82;;;;;;;-0.41;100.00;101081.59;5029100;28;20116;-69
2023/12/04 02:49:18;;;;;;;23.90;11.18;;;;;;;-0.39;100.00;101081.47;5029002;28;20111;-69
2023/12/04 02:51:43;;;;;;;23.67;10.68;;;;;;;-0.45;100.00;101067.91;5029029;28;20041;-69
2023/12/04 02:54:09;;;;;;;23.17;10.10;;;;;;;-0.50;100.00;101069.19;5028920;28;20018;-69
2023/12/04 02:56:34;;;;;;;22.75;10.32;;;;;;;-0.46;100.00;101071.47;5028911;28;20037;-70
2023/12/04 02:58:59;;;;;;;23.92;8.68;;;;;;;-0.45;100.00;101067.91;5027591;28;20126;-70
2023/12/04 03:01:25;;;;;;;20.05;8.40;;;;;;;-0.42;100.00;101071.22;5027598;28;20114;-70
2023/12/04 03:03:50;;;;;;;22.13;10.43;;;;;;;-0.45;100.00;101062.66;5027545;28;20053;-69
2023/12/04 03:06:18;;;;;;;20.77;8.07;;;;;;;-0.79;100.00;101006.00;5028731;28;20029;-69
2023/12/04 03:08:43;;;;;;;21.23;8.65;;;;;;;-0.43;100.00;101056.47;5011370;28;20026;-69
2023/12/04 03:11:09;;;;;;;20.95;10.50;;;;;;;-0.50;100.00;101046.47;5028764;28;20102;-70
2023/12/04 03:13:34;;;;;;;21.77;8.13;;;;;;;-0.47;100.00;101048.03;5027746;28;20029;-70
2023/12/04 03:16:00;;;;;;;20.98;9.43;;;;;;;-0.47;100.00;101051.47;5027459;28;20022;-70
2023/12/04 03:18:25;;;;;;;23.17;9.75;;;;;;;-0.51;100.00;101038.72;5028755;28;20038;-70
2023/12/04 03:20:51;;;;;;;21.75;8.65;;;;;;;-0.47;100.00;101042.78;5010964;28;20030;-70
2023/12/04 03:23:16;;;;;;;23.25;10.80;;;;;;;-0.47;100.00;101033.13;5031062;28;20063;-69
2023/12/04 03:25:42;;;;;;;24.17;10.65;;;;;;;-0.47;100.00;101038.38;5030599;28;20030;-69
2023/12/04 03:28:08;;;;;;;20.73;9.20;;;;;;;-0.52;100.00;101031.84;5032214;28;20034;-69
2023/12/04 03:30:33;;;;;;;18.77;9.43;;;;;;;-0.50;100.00;101028.13;5032126;28;20416;-69
2023/12/04 03:32:58;;;;;;;20.77;8.80;;;;;;;-0.50;100.00;101033.38;5032164;28;20037;-69
2023/12/04 03:35:24;;;;;;;20.05;8.57;;;;;;;-0.50;100.00;101024.66;5032137;28;20037;-69
2023/12/04 03:37:52;;;;;;;18.55;9.95;;;;;;;-0.53;100.00;101011.81;5031988;28;20536;-69
2023/12/04 03:40:17;;;;;;;18.85;8.35;;;;;;;-0.56;100.00;101007.66;5014281;28;20420;-69
2023/12/04 03:42:43;;;;;;;22.20;10.70;;;;;;;-0.53;100.00;101007.41;5030466;28;20044;-69
2023/12/04 03:45:09;;;;;;;25.65;9.70;;;;;;;-0.53;100.00;101006.56;5030505;28;20033;-69
2023/12/04 03:47:34;;;;;;;24.13;10.57;;;;;;;-0.58;100.00;100985.97;5031827;28;20044;-69
2023/12/04 03:49:59;;;;;;;21.08;10.45;;;;;;;-0.76;100.00;100972.56;5014032;28;20064;-69
2023/12/04 03:52:25;;;;;;;19.67;8.77;;;;;;;-0.59;100.00;100989.56;5030429;28;20504;-69
2023/12/04 03:54:50;;;;;;;19.25;9.50;;;;;;;-0.58;100.00;100982.53;5030159;28;20075;-70
2023/12/04 03:57:15;;;;;;;18.13;9.20;;;;;;;-0.56;100.00;100981.44;5014001;28;20495;-69
2023/12/04 03:59:41;;;;;;;18.50;8.00;;;;;;;-0.55;100.00;100974.41;5031598;28;20025;-70
2023/12/04 04:02:06;;;;;;;21.48;9.00;;;;;;;-0.60;100.00;100969.56;5031667;28;20069;-70
2023/12/04 04:04:31;;;;;;;21.33;9.70;;;;;;;-0.64;100.00;100962.88;5031459;28;21009;-70
2023/12/04 04:06:57;;;;;;;23.88;10.43;;;;;;;-0.56;100.00;100968.34;5030088;28;20037;-70
2023/12/04 04:09:22;;;;;;;21.40;8.95;;;;;;;-0.57;100.00;100961.47;5030034;28;20391;-70
2023/12/04 04:11:48;;;;;;;19.08;9.43;;;;;;;-0.57;100.00;100961.47;5031479;28;20048;-70
2023/12/04 04:14:13;;;;;;;21.92;9.30;;;;;;;-0.56;100.00;100960.50;5031288;28;20060;-70
2023/12/04 04:16:39;;;;;;;19.50;8.00;;;;;;;-0.55;100.00;100966.56;5029949;28;20480;-70
2023/12/04 04:19:05;;;;;;;18.15;7.00;;;;;;;-0.55;100.00;100962.19;5031107;28;20029;-70
2023/12/04 04:21:31;;;;;;;18.50;9.75;;;;;;;-0.55;100.00;100959.56;5031216;28;20049;-70
2023/12/04 04:23:56;;;;;;;19.20;8.15;;;;;;;-0.52;100.00;100950.63;5029662;28;20144;-70
2023/12/04 04:26:22;;;;;;;17.05;8.30;;;;;;;-0.55;100.00;100943.84;5029765;28;20044;-70
2023/12/04 04:28:47;;;;;;;19.50;8.38;;;;;;;-0.52;100.00;100945.38;5030960;28;20037;-70
2023/12/04 04:31:13;;;;;;;19.75;7.95;;;;;;;-0.56;100.00;100933.47;5030864;28;20041;-70
2023/12/04 04:33:38;;;;;;;23.42;10.23;;;;;;;-0.54;100.00;100939.44;5028747;28;20499;-70
2023/12/04 04:36:04;;;;;;;17.55;7.32;;;;;;;-0.52;100.00;100937.53;5030773;28;20030;-70
2023/12/04 04:38:30;;;;;;;16.52;7.95;;;;;;;-0.53;100.00;100926.19;5030843;28;20025;-70
2023/12/04 04:40:55;;;;;;;20.30;9.40;;;;;;;-0.52;100.00;100934.91;5029392;28;20160;-70
2023/12/04 04:43:20;;;;;;;20.92;7.95;;;;;;;-0.54;100.00;100926.34;5030760;28;20052;-70
2023/12/04 04:45:46;;;;;;;20.55;8.23;;;;;;;-0.54;100.00;100937.63;5030594;28;20034;-70
2023/12/04 04:48:11;;;;;;;19.17;7.95;;;;;;;-0.58;100.00;100925.72;5030715;28;20076;-70
2023/12/04 04:50:37;;;;;;;23.48;9.02;;;;;;;-0.60;100.00;100925.03;5029427;28;20120;-70
2023/12/04 04:53:02;;;;;;;19.92;10.02;;;;;;;-0.62;100.00;100913.84;5030725;28;20099;-70
2023/12/04 04:55:27;;;;;;;20.60;9.05;;;;;;;-0.62;100.00;100911.22;5029100;28;20108;-70
2023/12/04 04:57:53;;;;;;;19.30;8.07;;;;;;;-0.59;100.00;100910.16;5029254;28;20034;-70
2023/12/04 05:00:19;;;;;;;19.58;8.50;;;;;;;-0.56;100.00;100920.38;5029204;28;20018;-69
2023/12/04 05:02:45;;;;;;;21.30;8.57;;;;;;;-0.54;100.00;100918.47;5030094;28;20366;-70
2023/12/04 05:05:11;;;;;;;19.77;7.00;;;;;;;-0.51;100.00;100920.84;5029206;28;20038;-70
2023/12/04 05:07:36;;;;;;;21.10;10.18;;;;;;;-0.48;100.00;100923.22;5030269;28;20036;-70
2023/12/04 05:10:02;;;;;;;15.95;8.05;;;;;;;-0.47;100.00;100922.28;5030135;28;20037;-70
2023/12/04 05:12:27;;;;;;;20.55;9.25;;;;;;;-0.52;100.00;100919.19;5030408;28;20117;-70
2023/12/04 05:14:53;;;;;;;19.92;8.35;;;;;;;-0.49;100.00;100919.75;5012321;28;20052;-70
2023/12/04 05:17:18;;;;;;;22.35;8.82;;;;;;;-0.47;100.00;100917.84;5030119;28;20064;-70
2023/12/04 05:19:43;;;;;;;21.42;9.43;;;;;;;-0.44;100.00;100922.03;5030015;28;20037;-70
2023/12/04 05:22:09;;;;;;;19.63;8.23;;;;;;;-0.47;100.00;100911.78;5028743;28;20370;-69
2023/12/04 05:24:35;;;;;;;18.02;8.57;;;;;;;-0.45;100.00;100904.63;5028511;28;20116;-69
2023/12/04 05:27:02;;;;;;;17.73;7.60;;;;;;;-0.48;100.00;100894.41;5029971;28;20026;-70
2023/12/04 05:29:27;;;;;;;17.73;7.40;;;;;;;-0.42;100.00;100906.16;5029987;28;20136;-69
2023/12/04 05:31:53;;;;;;;18.00;7.60;;;;;;;-0.40;100.00;100904.25;5029984;28;20030;-69
2023/12/04 05:34:18;;;;;;;19.35;8.10;;;;;;;-0.41;100.00;100892.13;5029773;28;20092;-70
2023/12/04 05:36:43;;;;;;;18.02;7.35;;;;;;;-0.40;100.00;100888.53;5029617;28;20033;-70
2023/12/04 05:39:09;;;;;;;19.50;8.20;;;;;;;-0.43;100.00;100887.00;5029850;28;20067;-70
2023/12/04 05:41:34;;;;;;;19.15;8.45;;;;;;;-0.46;100.00;100877.59;5029454;28;20057;-70
2023/12/04 05:43:59;;;;;;;16.50;8.48;;;;;;;-0.43;100.00;100873.91;5029700;28;20095;-70
2023/12/04 05:46:25;;;;;;;16.50;7.38;;;;;;;-0.41;100.00;100879.03;5011588;28;20504;-70
2023/12/04 05:48:50;;;;;;;15.45;7.35;;;;;;;-0.46;100.00;100867.13;5029485;28;20029;-70
2023/12/04 05:51:15;;;;;;;14.15;6.05;;;;;;;-0.40;100.00;100872.81;5028230;28;20037;-70
2023/12/04 05:53:41;;;;;;;19.70;6.65;;;;;;;-0.39;100.00;100874.47;5011654;28;20128;-70
2023/12/04 05:56:08;;;;;;;15.20;7.32;;;;;;;-0.45;100.00;100867.94;5029261;28;20449;-69
2023/12/04 05:58:34;;;;;;;18.75;6.82;;;;;;;-0.42;100.00;100883.41;5029162;28;20041;-69
2023/12/04 06:00:59;;;;;;;17.20;7.85;;;;;;;-0.40;100.00;100878.06;5027959;28;20022;-69
2023/12/04 06:03:25;;;;;;;15.35;7.38;;;;;;;-0.43;100.00;100871.28;5029231;28;20040;-69
2023/12/04 06:05:50;;;;;;;14.63;6.72;;;;;;;-0.38;100.00;100876.97;5027791;28;20459;-70
2023/12/04 06:08:16;;;;;;;19.90;8.65;;;;;;;-0.41;100.00;100879.84;5029105;28;20037;-70
2023/12/04 06:10:41;;;;;;;19.02;9.02;;;;;;;-0.41;100.00;100866.75;4995088;28;20128;-69
2023/12/04 06:13:06;;;;;;;16.13;6.45;;;;;;;-0.39;100.00;100869.22;5027928;28;20965;-69
2023/12/04 06:15:32;;;;;;;15.95;6.75;;;;;;;-0.36;100.00;100869.00;5028140;28;20044;-69
2023/12/04 06:17:58;;;;;;;15.82;7.07;;;;;;;-0.36;100.00;100855.91;5029051;28;20041;-69
2023/12/04 06:20:23;;;;;;;18.35;7.65;;;;;;;-0.39;100.00;100848.28;5029197;28;20033;-69
2023/12/04 06:22:49;;;;;;;15.18;6.10;;;;;;;-0.35;100.00;100850.50;5029102;28;20494;-69
2023/12/04 06:25:15;;;;;;;14.93;6.88;;;;;;;-0.32;100.00;100857.28;5027638;28;20037;-69
2023/12/04 06:27:40;;;;;;;13.68;6.80;;;;;;;-0.31;100.00;100843.25;5029070;28;20037;-69
2023/12/04 06:30:06;;;;;;;14.15;6.55;;;;;;;-0.36;100.00;100838.38;5028955;28;20044;-69
2023/12/04 06:32:33;;;;;;;17.23;6.63;;;;;;;-0.33;100.00;100838.13;5029049;28;20135;-70
2023/12/04 06:34:58;;;;;;;13.88;5.97;;;;;;;-0.33;100.00;100827.66;4995118;28;20028;-70
2023/12/04 06:37:24;;;;;;;15.57;6.22;;;;;;;-0.43;100.00;100810.19;5029016;28;20034;-70
2023/12/04 06:39:52;;;;;;;14.32;6.70;;;;;;;-0.34;100.00;100815.50;5028884;28;20825;-70
2023/12/04 06:42:18;;;;;;;15.85;6.53;;;;;;;-0.36;100.00;100808.75;5028855;28;20038;-70
2023/12/04 06:44:44;;;;;;;15.02;5.90;;;;;;;-0.34;100.00;100798.94;5028743;28;20029;-70
2023/12/04 06:47:11;;;;;;;17.27;6.00;;;;;;;-0.30;100.00;100805.59;5028929;28;20037;-70
2023/12/04 06:49:37;;;;;;;15.48;6.45;;;;;;;-0.30;100.00;100800.34;5028929;28;20034;-70
2023/12/04 06:52:03;;;;;;;12.60;5.65;;;;;;;-0.31;100.00;100796.91;5028837;28;20034;-70
2023/12/04 06:54:29;;;;;;;18.30;6.93;;;;;;;-0.32;100.00;100792.63;5028624;28;20095;-70
2023/12/04 06:56:54;;;;;;;15.30;6.63;;;;;;;-0.51;100.00;100754.03;5029240;28;20025;-70
2023/12/04 06:59:20;;;;;;;15.88;5.90;;;;;;;-0.34;100.00;100772.72;5031293;28;21053;-70
2023/12/04 07:01:46;;;;;;;14.02;5.75;;;;;;;-0.41;100.00;100774.22;5032608;28;20467;-70
2023/12/04 07:04:11;;;;;;;17.25;7.32;;;;;;;-0.34;100.00;100773.59;5032648;28;20033;-70
2023/12/04 07:06:38;;;;;;;16.63;6.57;;;;;;;-0.34;100.00;100770.97;5032319;28;20044;-70
2023/12/04 07:09:03;;;;;;;17.17;6.32;;;;;;;-0.39;100.00;100762.66;5032382;28;20579;-70
2023/12/04 07:11:29;;;;;;;15.45;6.38;;;;;;;-0.31;100.00;100759.41;5032436;28;20030;-70
2023/12/04 07:13:55;;;;;;;14.15;5.80;;;;;;;-0.33;100.00;100756.91;5032409;28;20033;-70
2023/12/04 07:16:20;;;;;;;15.10;6.05;;;;;;;-0.39;100.00;100754.81;5032116;28;20025;-70
2023/12/04 07:18:45;;;;;;;15.13;7.05;;;;;;;-0.32;100.00;100778.69;5014407;28;20068;-70
2023/12/04 07:21:11;;;;;;;14.50;6.15;;;;;;;-0.40;100.00;100774.06;5030897;28;20041;-70
2023/12/04 07:23:36;;;;;;;12.43;6.07;;;;;;;-0.33;100.00;100790.13;5032029;28;20431;-70
2023/12/04 07:26:03;;;;;;;15.57;5.95;;;;;;;-0.31;100.00;100788.22;5031828;28;20037;-70
2023/12/04 07:28:29;;;;;;;15.95;6.40;;;;;;;-0.31;100.00;100788.22;5030751;28;20053;-69
2023/12/04 07:30:55;;;;;;;15.57;6.10;;;;;;;-0.30;100.00;100788.09;5032083;28;20063;-69
2023/12/04 07:33:20;;;;;;;12.68;5.50;;;;;;;-0.29;100.00;100786.28;5032074;28;20029;-69
2023/12/04 07:35:46;;;;;;;16.02;6.35;;;;;;;-0.28;100.00;100782.72;5030494;28;20052;-69
2023/12/04 07:38:12;;;;;;;13.18;5.20;;;;;;;-0.28;100.00;100787.97;5031820;28;20044;-70
2023/12/04 07:40:37;;;;;;;16.75;6.72;;;;;;;-0.27;100.00;100787.00;5031598;28;20049;-70
2023/12/04 07:43:03;;;;;;;15.27;7.18;;;;;;;-0.26;100.00;100784.25;5031611;28;20408;-71
2023/12/04 07:45:28;;;;;;;15.23;5.55;;;;;;;-0.26;100.00;100780.81;5031802;28;20136;-71
2023/12/04 07:47:54;;;;;;;16.00;6.25;;;;;;;-0.20;100.00;100785.53;5031765;28;20093;-71
2023/12/04 07:50:19;;;;;;;12.65;5.25;;;;;;;-0.20;100.00;100782.91;5031665;28;20029;-73
2023/12/04 07:52:44;;;;;;;12.07;5.13;;;;;;;-0.16;100.00;100781.69;5030190;28;20568;-71
2023/12/04 07:55:10;;;;;;;12.07;5.25;;;;;;;-0.13;100.00;100785.84;5013866;28;20037;-71
2023/12/04 07:57:35;;;;;;;11.10;5.03;;;;;;;-0.11;100.00;100784.75;5031638;28;20036;-71
2023/12/04 08:00:01;;;;;;;11.00;4.93;;;;;;;-0.13;100.00;100775.34;5031403;28;20496;-72
2023/12/04 08:02:26;;;;;;;14.57;5.80;;;;;;;-0.13;100.00;100770.09;5030135;28;20068;-72
2023/12/04 08:04:53;;;;;;;11.85;5.38;;;;;;;-0.14;100.00;100771.91;5031396;28;20033;-72
2023/12/04 08:07:19;;;;;;;13.98;5.60;;;;;;;-0.04;100.00;100783.28;5030954;28;20030;-71
2023/12/04 08:09:44;;;;;;;16.25;6.40;;;;;;;-0.03;100.00;100777.09;5030417;28;20044;-71
2023/12/04 08:12:10;;;;;;;14.75;6.38;;;;;;;-0.02;100.00;100765.63;5030271;28;20493;-71
2023/12/04 08:14:35;;;;;;;12.77;5.40;;;;;;;-0.04;100.00;100769.34;5030349;28;20404;-71
2023/12/04 08:17:00;;;;;;;13.20;5.38;;;;;;;0.01;100.00;100761.09;5029014;28;20067;-72
2023/12/04 08:19:26;;;;;;;12.25;5.10;;;;;;;0.04;100.00;100758.22;5030542;28;20033;-72
2023/12/04 08:21:51;;;;;;;12.98;6.35;;;;;;;0.05;100.00;100762.47;5028812;28;20120;-72
2023/12/04 08:24:18;;;;;;;13.40;5.28;;;;;;;0.06;100.00;100761.53;5029168;28;20476;-72
2023/12/04 08:26:46;;;;;;;11.80;4.88;;;;;;;0.06;100.00;100751.88;5030310;28;20064;-72
2023/12/04 08:29:11;;;;;;;13.23;5.53;;;;;;;0.09;100.00;100756.03;5030256;28;20048;-72
2023/12/04 08:31:36;;;;;;;12.05;5.95;;;;;;;0.08;100.00;100749.09;5030216;28;20033;-71
2023/12/04 08:34:02;;;;;;;13.63;6.10;;;;;;;0.10;100.00;100747.19;5028790;28;20528;-71
2023/12/04 08:36:27;;;;;;;10.55;4.85;;;;;;;0.11;100.00;100746.25;5028873;28;20052;-71
2023/12/04 08:38:53;;;;;;;12.55;5.35;;;;;;;0.13;100.00;100749.53;5029138;28;20763;-74
2023/12/04 08:41:18;;;;;;;13.68;6.57;;;;;;;0.12;100.00;100738.22;5026224;28;20049;-72
2023/12/04 08:43:43;;;;;;;11.95;5.07;;;;;;;0.13;100.00;100742.53;5028024;28;20049;-72
2023/12/04 08:46:13;;;;;;;12.63;5.63;;;;;;;0.10;100.00;100732.28;5027694;28;20060;-74
2023/12/04 08:48:40;;;;;;;11.88;5.22;;;;;;;0.14;100.00;100730.25;5027914;28;20029;-75
2023/12/04 08:51:05;;;;;;;13.35;5.28;;;;;;;0.17;100.00;100728.16;5027744;28;20267;-75
2023/12/04 08:53:31;;;;;;;12.88;5.72;;;;;;;0.20;100.00;100721.84;5027700;28;20140;-75
2023/12/04 08:55:57;;;;;;;14.50;5.88;;;;;;;0.17;100.00;100712.44;5026460;28;20507;-74
2023/12/04 08:58:23;;;;;;;14.60;7.35;;;;;;;0.18;100.00;100714.13;5027857;28;20045;-74
2023/12/04 09:00:48;;;;;;;12.07;5.32;;;;;;;0.23;100.00;100716.31;5028146;28;20485;-76
2023/12/04 09:03:13;;;;;;;11.05;4.82;;;;;;;0.20;100.00;100701.69;5028069;28;20037;-76
2023/12/04 09:05:39;;;;;;;13.68;6.97;;;;;;;0.26;100.00;100708.19;5027910;28;20101;-71
2023/12/04 09:08:04;;;;;;;13.25;5.88;;;;;;;0.29;100.00;100721.06;5030029;28;20112;-71
2023/12/04 09:10:30;;;;;;;15.90;6.72;;;;;;;0.30;100.00;100698.28;5028729;28;20068;-71
2023/12/04 09:12:55;;;;;;;14.50;5.90;;;;;;;0.30;100.00;100695.66;5012034;28;20040;-71
2023/12/04 09:15:20;;;;;;;16.10;7.20;;;;;;;0.24;100.00;100685.66;5030146;28;20036;-71
2023/12/04 09:17:46;;;;;;;19.58;7.68;;;;;;;0.29;100.00;100686.09;5028527;28;20107;-71
2023/12/04 09:20:11;;;;;;;12.55;5.97;;;;;;;0.33;100.00;100701.44;5011582;28;20049;-71
2023/12/04 09:22:38;;;;;;;16.52;7.70;;;;;;;0.35;100.00;100696.06;5029808;28;20033;-71
2023/12/04 09:25:08;;;;;;;16.85;8.38;;;;;;;0.37;100.00;100692.34;5029192;28;20033;-71
2023/12/04 09:27:34;;;;;;;17.00;6.60;;;;;;;0.39;100.00;100695.69;5029376;28;20079;-70
2023/12/04 09:29:59;;;;;;;15.73;7.43;;;;;;;0.34;100.00;100686.53;5028768;28;20932;-71
2023/12/04 09:32:25;;;;;;;13.23;6.30;;;;;;;0.42;100.00;100691.97;5028868;28;20048;-71
2023/12/04 09:34:50;;;;;;;16.35;7.55;;;;;;;0.38;100.00;100674.81;5028442;28;20064;-71
2023/12/04 09:37:15;;;;;;;16.20;7.15;;;;;;;0.43;100.00;100680.50;5028017;28;20033;-71
2023/12/04 09:39:41;;;;;;;13.98;6.50;;;;;;;0.49;100.00;100690.44;5010801;28;20045;-71
2023/12/04 09:42:08;;;;;;;17.52;7.20;;;;;;;0.49;100.00;100690.44;5029294;28;20469;-71
2023/12/04 09:44:36;;;;;;;17.08;7.95;;;;;;;0.53;100.00;100691.00;5028183;28;20045;-71
2023/12/04 09:47:03;;;;;;;14.82;6.38;;;;;;;0.56;100.00;100683.69;5028151;28;20037;-71
2023/12/04 09:49:29;;;;;;;14.75;6.45;;;;;;;0.59;100.00;100690.47;5027927;28;20472;-71
2023/12/04 09:51:57;;;;;;;14.95;6.95;;;;;;;0.59;100.00;100687.84;5029381;28;20096;-71
2023/12/04 09:54:24;;;;;;;17.00;6.60;;;;;;;0.50;100.00;100665.03;5029515;28;20469;-71
2023/12/04 09:56:50;;;;;;;14.48;6.05;;;;;;;0.62;100.00;100684.94;5029439;28;20042;-71
2023/12/04 09:59:17;;;;;;;16.80;7.55;;;;;;;0.58;100.00;100667.81;5011853;28;20165;-70
2023/12/04 10:01:43;;;;;;;16.58;7.03;;;;;;;0.67;100.00;100680.09;5029300;28;20104;-71
2023/12/04 10:04:10;;;;;;;16.40;8.38;;;;;;;0.69;100.00;100679.97;5027815;28;20080;-71
2023/12/04 10:06:37;;;;;;;17.38;8.90;;;;;;;0.71;100.00;100675.41;5029032;28;20035;-71
2023/12/04 10:09:03;;;;;;;18.23;8.35;;;;;;;0.73;100.00;100673.47;5027758;28;20025;-72
2023/12/04 10:11:29;;;;;;;17.33;8.95;;;;;;;0.76;100.00;100668.81;5029072;28;20033;-71
2023/12/04 10:13:54;;;;;;;15.65;8.68;;;;;;;0.77;100.00;100659.13;5029487;28;20037;-71
2023/12/04 10:16:34;;;;;;;16.00;7.65;;;;;;;0.80;100.00;100670.16;5029030;28;20091;-70
2023/12/04 10:19:15;;;;;;;17.30;8.20;;;;;;;0.81;100.00;100666.59;5029195;28;20043;-71
2023/12/04 10:21:41;;;;;;;;;;;;;;;0.82;100.00;100649.88;5028173;28;20045;-71
2023/12/04 10:24:07;;;;;;;17.38;7.72;;;;;;;0.77;100.00;100643.38;5028874;28;20014;-70
2023/12/04 10:26:32;;;;;;;16.80;8.13;;;;;;;0.75;100.00;100634.81;5027689;28;20041;-70
2023/12/04 10:29:02;;;;;;;21.27;8.73;;;;;;;0.74;100.00;100633.16;5028809;28;20028;-70
2023/12/04 10:31:34;;;;;;;17.55;9.23;;;;;;;0.83;100.00;100641.00;5028910;28;20033;-70
2023/12/04 10:34:01;;;;;;;19.27;9.02;;;;;;;0.84;100.00;100640.06;5032720;28;20037;-70
2023/12/04 10:36:28;;;;;;;20.05;8.48;;;;;;;0.88;100.00;100630.09;5033023;28;20028;-71
2023/12/04 10:39:08;;;;;;;20.60;10.40;;;;;;;0.85;100.00;100615.44;5032822;28;20065;-71
2023/12/04 10:41:34;;;;;;;17.08;7.45;;;;;;;0.76;100.00;100587.44;5032472;28;20061;-70
2023/12/04 10:44:00;;;;;;;19.13;8.15;;;;;;;0.82;100.00;100584.25;5032945;28;20074;-70
2023/12/04 10:46:27;;;;;;;23.67;9.35;;;;;;;1.04;100.00;100611.16;5032721;28;20032;-70
2023/12/04 10:48:53;;;;;;;19.23;8.15;;;;;;;1.09;100.00;100599.25;5032877;28;20033;-70
2023/12/04 10:51:20;;;;;;;17.88;8.60;;;;;;;1.15;100.00;100597.03;5032744;28;20029;-70
2023/12/04 10:53:45;;;;;;;19.48;8.80;;;;;;;1.18;100.00;100592.34;5032512;28;20029;-70
2023/12/04 10:56:18;;;;;;;19.20;10.15;;;;;;;1.14;100.00;100583.06;5032612;28;20040;-70
2023/12/04 10:58:46;;;;;;;19.08;7.65;;;;;;;1.22;100.00;100588.44;5032728;28;20025;-70
2023/12/04 11:01:14;;;;;;;16.67;7.88;;;;;;;1.23;100.00;100582.22;5032296;28;20048;-71
2023/12/04 11:03:48;;;;;;;20.95;9.10;;;;;;;1.21;100.00;100568.41;5032590;28;20845;-71